createdAt,value
2022-09-07T00:04:49.994Z,5.17
2022-09-07T00:10:57.910Z,5.33
2022-09-07T00:16:59.768Z,5.57
2022-09-07T00:23:01.501Z,5.30
2022-09-07T00:29:04.468Z,5.37
2022-09-07T00:35:06.619Z,4.37
2022-09-07T00:41:08.799Z,4.40
2022-09-07T00:47:18.980Z,4.40
2022-09-07T00:53:28.080Z,3.73
2022-09-07T00:59:34.572Z,4.10
2022-09-07T01:05:43.867Z,3.90
2022-09-07T01:11:51.092Z,3.97
2022-09-07T01:18:07.673Z,4.20
2022-09-07T01:24:47.047Z,3.70
2022-09-07T01:30:57.490Z,2.77
2022-09-07T01:37:05.394Z,3.47
2022-09-07T01:43:23.299Z,3.73
2022-09-07T01:49:45.647Z,3.70
2022-09-07T01:55:53.636Z,3.20
2022-09-07T02:02:19.573Z,3.50
2022-09-07T02:08:34.251Z,3.03
2022-09-07T02:14:44.035Z,3.60
2022-09-07T02:20:53.648Z,3.90
2022-09-07T02:26:58.171Z,3.33
2022-09-07T02:33:00.276Z,3.47
2022-09-07T02:39:02.234Z,3.10
2022-09-07T02:45:08.503Z,3.43
2022-09-07T02:51:22.890Z,3.17
2022-09-07T02:57:53.334Z,3.63
2022-09-07T03:04:01.027Z,3.47
2022-09-07T03:10:06.224Z,3.43
2022-09-07T03:16:13.551Z,2.80
2022-09-07T03:22:15.440Z,3.60
2022-09-07T03:28:17.604Z,3.03
2022-09-07T03:34:19.456Z,3.30
2022-09-07T03:40:21.370Z,3.63
2022-09-07T03:46:23.328Z,3.40
2022-09-07T03:52:25.249Z,3.47
2022-09-07T03:58:29.450Z,3.40
2022-09-07T04:04:31.557Z,3.60
2022-09-07T04:10:38.566Z,3.20
2022-09-07T04:16:40.939Z,3.80
2022-09-07T04:22:43.422Z,3.00
2022-09-07T04:28:45.854Z,3.23
2022-09-07T04:34:47.659Z,3.30
2022-09-07T04:40:49.430Z,3.33
2022-09-07T04:46:51.349Z,3.50
2022-09-07T04:52:53.116Z,3.50
2022-09-07T04:58:55.047Z,3.50
2022-09-07T05:05:02.009Z,3.70
2022-09-07T05:11:04.981Z,3.57
2022-09-07T05:17:07.951Z,3.93
2022-09-07T05:23:09.769Z,3.60
2022-09-07T05:35:34.640Z,3.30
2022-09-07T05:41:36.729Z,4.13
2022-09-07T05:47:39.521Z,3.10
2022-09-07T05:53:49.426Z,3.07
2022-09-07T05:59:55.679Z,2.67
2022-09-07T06:06:09.177Z,3.30
2022-09-07T06:12:14.232Z,3.23
2022-09-07T06:24:47.756Z,3.73
2022-09-07T06:30:49.886Z,3.00
2022-09-07T06:36:52.464Z,2.83
2022-09-07T06:49:13.345Z,3.60
2022-09-07T06:55:15.159Z,3.90
2022-09-07T07:01:29.326Z,3.63
2022-09-07T07:14:23.741Z,3.40
2022-09-07T07:26:50.331Z,3.20
2022-09-07T07:32:54.327Z,3.73
2022-09-07T07:46:02.636Z,3.73
2022-09-07T07:58:35.933Z,3.40
2022-09-07T08:11:07.364Z,3.60
2022-09-07T08:17:15.269Z,3.87
2022-09-07T08:23:32.524Z,3.40
2022-09-07T08:29:35.453Z,3.90
2022-09-07T08:35:37.619Z,3.70
2022-09-07T08:42:03.530Z,3.63
2022-09-07T08:48:06.277Z,3.90
2022-09-07T08:54:12.836Z,3.57
2022-09-07T09:07:00.045Z,4.67
2022-09-07T09:13:35.924Z,4.83
2022-09-07T09:19:55.009Z,4.00
2022-09-07T09:26:15.512Z,5.27
2022-09-07T09:52:43.584Z,5.13
2022-09-07T10:12:56.038Z,4.90
2022-09-07T10:18:59.462Z,4.93
2022-09-07T10:25:04.457Z,6.13
2022-09-07T10:31:31.808Z,5.20
2022-09-07T10:38:21.030Z,4.17
2022-09-07T10:44:55.706Z,4.97
2022-09-07T10:51:29.971Z,4.13
2022-09-07T11:12:11.365Z,4.33
2022-09-07T11:18:40.151Z,5.00
2022-09-07T11:37:59.313Z,4.68
2022-09-07T11:44:16.275Z,4.70
2022-09-07T11:50:22.481Z,4.00
2022-09-07T11:56:36.247Z,4.97
2022-09-07T12:03:00.957Z,5.07
2022-09-07T12:09:19.409Z,5.38
2022-09-07T12:15:33.442Z,3.78
2022-09-07T12:21:47.742Z,4.40
2022-09-07T12:27:55.321Z,4.53
2022-09-07T12:40:37.550Z,4.68
2022-09-07T12:46:42.068Z,4.25
2022-09-07T13:12:57.814Z,4.32
2022-09-07T13:19:06.608Z,3.50
2022-09-07T13:38:55.615Z,5.60
2022-09-07T13:45:01.490Z,4.85
2022-09-07T13:51:23.467Z,4.57
2022-09-07T13:58:07.613Z,4.47
2022-09-07T14:04:30.248Z,8.68
2022-09-07T14:10:32.625Z,3.65
2022-09-07T14:16:49.465Z,4.55
2022-09-07T14:22:53.540Z,4.18
2022-09-07T14:29:06.002Z,4.40
2022-09-07T14:35:22.140Z,3.60
2022-09-07T14:41:56.313Z,4.40
2022-09-07T14:48:13.385Z,4.00
2022-09-07T15:07:40.133Z,4.53
2022-09-07T15:14:07.409Z,5.10
2022-09-07T15:27:03.535Z,5.93
2022-09-07T15:33:16.487Z,4.28
2022-09-07T16:44:47.829Z,5.90
2022-09-07T16:57:09.546Z,8.70
2022-09-07T17:03:11.587Z,8.10
2022-09-07T17:09:14.704Z,39.50
2022-09-07T17:15:16.624Z,40.60
2022-09-07T17:21:19.719Z,18.07
2022-09-07T17:27:21.857Z,13.60
2022-09-07T17:33:23.811Z,10.97
2022-09-07T17:39:25.621Z,10.13
2022-09-07T17:45:28.018Z,7.83
2022-09-07T17:51:32.194Z,6.57
2022-09-07T18:03:54.632Z,5.97
2022-09-07T18:09:56.457Z,7.23
2022-09-07T18:15:58.620Z,7.03
2022-09-07T18:22:02.715Z,6.50
2022-09-07T18:34:31.855Z,12.93
2022-09-07T18:40:37.864Z,7.77
2022-09-07T18:46:45.915Z,7.60
2022-09-07T18:52:53.023Z,6.97
2022-09-07T18:58:57.152Z,6.43
2022-09-07T19:11:26.456Z,6.37
2022-09-07T19:17:28.270Z,6.80
2022-09-07T19:23:30.064Z,6.23
2022-09-07T19:29:31.845Z,6.63
2022-09-07T19:35:35.553Z,7.67
2022-09-07T19:41:41.069Z,7.03
2022-09-07T19:47:42.842Z,6.50
2022-09-07T19:53:47.061Z,6.97
2022-09-07T19:59:48.875Z,7.83
2022-09-07T20:05:50.643Z,12.47
2022-09-07T20:11:52.426Z,8.20
2022-09-07T20:17:54.588Z,9.97
2022-09-07T20:23:56.862Z,8.23
2022-09-07T20:29:58.576Z,6.90
2022-09-07T20:36:04.488Z,7.13
2022-09-07T20:42:08.039Z,7.70
2022-09-07T20:48:09.770Z,6.90
2022-09-07T20:54:11.540Z,7.07
2022-09-07T21:00:13.513Z,8.00
2022-09-07T21:06:16.118Z,6.90
2022-09-07T21:12:17.985Z,7.40
2022-09-07T21:18:19.845Z,7.43
2022-09-07T21:24:23.701Z,7.07
2022-09-07T21:30:25.509Z,7.70
2022-09-07T21:36:28.098Z,7.53
2022-09-07T21:42:29.868Z,7.53
2022-09-07T21:48:31.590Z,6.80
2022-09-07T21:54:33.464Z,7.83
2022-09-07T22:00:35.283Z,8.03
2022-09-07T22:06:37.811Z,7.23
2022-09-07T22:12:39.996Z,6.83
2022-09-07T22:18:46.230Z,8.20
2022-09-07T22:24:47.915Z,7.93
2022-09-07T22:30:49.746Z,7.10
2022-09-07T22:36:51.469Z,7.03
2022-09-07T22:42:53.228Z,7.37
2022-09-07T22:48:57.455Z,8.53
2022-09-07T22:54:59.218Z,8.10
2022-09-07T23:01:01.868Z,8.07
2022-09-07T23:07:03.720Z,7.80
2022-09-07T23:13:05.498Z,8.27
2022-09-07T23:19:07.766Z,8.33
2022-09-07T23:25:09.728Z,7.50
2022-09-07T23:31:11.764Z,7.83
2022-09-07T23:37:13.482Z,6.73
2022-09-07T23:43:15.320Z,7.80
2022-09-07T23:49:17.183Z,7.43
2022-09-07T23:55:19.000Z,7.17
